ICE825 BIKF-KBNA
Flight info
| Callsign | ICE825 |
|---|---|
| Flight time | N/A |
| Altitude | 34000 |
| Route | RALOV3C RALOV DCT ROTIN DCT 64N030W 63N040W 61N050W DCT TOXIT/N0461F340 DCT UDMAR DCT TEALS/N0461F360 DCT HENDY DCT NOSIK DCT CRL J43 FLM/N0454F370 J43 YOCKY/N0457F380 DCT CUTRR PASLY5 |
| Aircraft | B38M/M-SDE1FGHILORVWXY/HB1 |
Departure
| Time | 2026-04-29 16:56 |
|---|---|
| Airport | Keflavik International Airport (BIKF) |
Arrival
| Time | N/A |
|---|---|
| Airport | Nashville International Airport (KBNA) |
| Time | Latitude | Longitude | Altitude | Speed | Heading |
|---|---|---|---|---|---|
| 2026-04-29 16:34 | 63.99278 | -22.62452 | 143 ft | 0 kts | 1° |
| 2026-04-29 16:49 | 63.99269 | -22.62452 | 143 ft | 3 kts | 1° |
| 2026-04-29 16:49 | 63.99249 | -22.62453 | 143 ft | 3 kts | 0° |
| 2026-04-29 16:49 | 63.99229 | -22.62453 | 143 ft | 3 kts | 360° |
| 2026-04-29 16:49 | 63.99210 | -22.62453 | 143 ft | 3 kts | 359° |
| 2026-04-29 16:50 | 63.99191 | -22.62457 | 143 ft | 3 kts | 23° |
| 2026-04-29 16:50 | 63.99177 | -22.62481 | 143 ft | 3 kts | 63° |
| 2026-04-29 16:50 | 63.99172 | -22.62519 | 143 ft | 2 kts | 88° |
| 2026-04-29 16:50 | 63.99172 | -22.62522 | 143 ft | 1 kts | 89° |
| 2026-04-29 16:51 | 63.99172 | -22.62481 | 143 ft | 3 kts | 89° |
| 2026-04-29 16:51 | 63.99172 | -22.62435 | 143 ft | 3 kts | 90° |
| 2026-04-29 16:51 | 63.99173 | -22.62406 | 143 ft | 0 kts | 90° |
| 2026-04-29 16:53 | 63.99173 | -22.62385 | 143 ft | 4 kts | 90° |
| 2026-04-29 16:53 | 63.99172 | -22.62239 | 143 ft | 15 kts | 90° |
| 2026-04-29 16:53 | 63.99174 | -22.61924 | 143 ft | 24 kts | 90° |
| 2026-04-29 16:54 | 63.99173 | -22.61556 | 150 ft | 22 kts | 90° |
| 2026-04-29 16:54 | 63.99169 | -22.61241 | 157 ft | 18 kts | 89° |
| 2026-04-29 16:54 | 63.99173 | -22.60981 | 162 ft | 15 kts | 90° |
| 2026-04-29 16:54 | 63.99174 | -22.60764 | 168 ft | 12 kts | 89° |
| 2026-04-29 16:55 | 63.99172 | -22.60580 | 174 ft | 12 kts | 105° |
| 2026-04-29 16:55 | 63.99104 | -22.60538 | 176 ft | 14 kts | 180° |
| 2026-04-29 16:55 | 63.98807 | -22.60541 | 174 ft | 77 kts | 180° |
| 2026-04-29 16:55 | 63.98050 | -22.60538 | 174 ft | 138 kts | 180° |
| 2026-04-29 16:56 | 63.96979 | -22.60457 | 567 ft | 158 kts | 181° |
| 2026-04-29 16:56 | 63.95886 | -22.60316 | 1473 ft | 161 kts | 185° |
| 2026-04-29 16:56 | 63.94762 | -22.60305 | 2208 ft | 167 kts | 186° |
| 2026-04-29 16:56 | 63.93519 | -22.60377 | 2633 ft | 190 kts | 185° |
| 2026-04-29 16:57 | 63.92123 | -22.60429 | 3280 ft | 198 kts | 185° |
| 2026-04-29 16:57 | 63.90756 | -22.60939 | 3980 ft | 208 kts | 208° |
| 2026-04-29 16:57 | 63.89670 | -22.63239 | 4462 ft | 227 kts | 238° |
| 2026-04-29 16:57 | 63.89287 | -22.66819 | 5215 ft | 240 kts | 265° |
| 2026-04-29 16:58 | 63.89323 | -22.70649 | 6088 ft | 245 kts | 264° |
| 2026-04-29 16:58 | 63.89338 | -22.74550 | 6900 ft | 248 kts | 264° |
| 2026-04-29 16:58 | 63.89349 | -22.78478 | 7780 ft | 248 kts | 264° |
| 2026-04-29 16:58 | 63.89358 | -22.82400 | 8659 ft | 249 kts | 263° |
| 2026-04-29 16:59 | 63.89365 | -22.86348 | 9514 ft | 250 kts | 263° |
| 2026-04-29 16:59 | 63.89371 | -22.90328 | 10242 ft | 255 kts | 263° |
| 2026-04-29 16:59 | 63.89373 | -22.94453 | 10534 ft | 275 kts | 263° |